Alder, Washington
Current Conditions -  °F | °C
As of 10:33 AM on Sunday 23 Nov 2014 (Local Time) from KGRF Reporting Station
Drizzle Drizzle  
Wind Chill:   Ceiling: 3200
Heat Index:   Visibility: 10mi
Dew Point:   Wind: 12mph
Humidity: 100%   Direction: 170°S
Pressure: 30.15"   Gusts: NA
Location:  46.8687°N, 122.208°W
Report Text: KGRF 231833Z AUTO 17010KT 10SM DZ SCT025 BKN032 OVC095 09/09 A3015 RMK AO2
Loading
Personal Weather Stations






























Interactive Weather Map New forecast layout! Learn more

10-Day Weather Forecast

Advertisements
Track Severe Weather on mobile